Time;durP1;ratioP1;P1;durP2;ratioP2;P2;SDS_P1;SDS_P2;PMS_P1;PMS_P2;Temp;Humidity;BMP_temperature;BMP_pressure;BME280_temperature;BME280_humidity;BME280_pressure;Samples;Min_cycle;Max_cycle;Signal;HPM_P1;HPM_P2
2023/07/16 00:00:28;;;;;;;16.15;4.35;;;18.40;99.90;;;;;;4993999;28;20084;-70
2023/07/16 00:02:53;;;;;;;19.10;5.60;;;18.40;99.90;;;;;;4993823;28;20052;-70
2023/07/16 00:05:19;;;;;;;23.50;6.40;;;18.50;99.90;;;;;;4993472;28;20474;-72
2023/07/16 00:07:45;;;;;;;19.63;6.05;;;18.50;99.90;;;;;;4993365;28;20042;-69
2023/07/16 00:10:10;;;;;;;20.42;7.05;;;18.50;99.90;;;;;;4993548;28;20038;-70
2023/07/16 00:12:36;;;;;;;18.85;5.07;;;18.50;99.90;;;;;;4993639;28;20044;-70
2023/07/16 00:15:02;;;;;;;17.98;5.15;;;18.50;99.90;;;;;;4993526;28;20049;-70
2023/07/16 00:17:27;;;;;;;19.98;6.35;;;18.50;99.90;;;;;;4992242;28;20064;-72
2023/07/16 00:19:53;;;;;;;18.38;4.50;;;18.50;99.90;;;;;;4992851;28;20034;-70
2023/07/16 00:22:19;;;;;;;21.02;5.78;;;18.50;99.90;;;;;;4993112;28;20038;-70
2023/07/16 00:24:44;;;;;;;17.65;5.13;;;18.50;99.90;;;;;;4993084;28;20034;-71
2023/07/16 00:27:10;;;;;;;13.57;4.38;;;18.40;99.90;;;;;;4993158;28;20065;-71
2023/07/16 00:29:35;;;;;;;17.15;5.75;;;18.40;99.90;;;;;;4993316;28;20162;-69
2023/07/16 00:32:01;;;;;;;15.43;4.10;;;18.40;99.90;;;;;;4993329;28;20092;-72
2023/07/16 00:34:26;;;;;;;17.02;4.75;;;18.40;99.90;;;;;;4993016;28;20035;-71
2023/07/16 00:36:52;;;;;;;14.93;4.03;;;18.40;99.90;;;;;;4993130;28;20100;-69
2023/07/16 00:39:17;;;;;;;12.38;3.95;;;18.30;99.90;;;;;;4992554;28;20055;-71
2023/07/16 00:41:43;;;;;;;15.85;4.05;;;18.30;99.90;;;;;;4993190;28;20042;-70
2023/07/16 00:44:08;;;;;;;14.38;4.57;;;18.20;99.90;;;;;;4993163;28;20139;-70
2023/07/16 00:46:34;;;;;;;12.93;4.45;;;18.20;99.90;;;;;;4992945;28;20034;-71
2023/07/16 00:49:00;;;;;;;17.45;5.10;;;18.20;99.90;;;;;;4992765;28;20034;-71
2023/07/16 00:51:26;;;;;;;17.27;5.20;;;18.20;99.90;;;;;;4992213;28;20042;-70
2023/07/16 00:53:52;;;;;;;16.58;4.70;;;18.20;99.90;;;;;;4992820;28;20031;-72
2023/07/16 00:56:18;;;;;;;12.23;4.60;;;18.20;99.90;;;;;;4992412;28;20045;-70
2023/07/16 00:58:44;;;;;;;13.65;3.55;;;18.20;99.90;;;;;;4992602;28;20335;-70
2023/07/16 01:01:09;;;;;;;16.98;5.55;;;18.20;99.90;;;;;;4992642;28;20026;-68
2023/07/16 01:03:35;;;;;;;14.95;5.05;;;18.20;99.90;;;;;;4992686;28;20529;-70
2023/07/16 01:06:13;;;;;;;16.55;5.65;;;18.10;99.90;;;;;;4992632;28;20038;-70
2023/07/16 01:08:46;;;;;;;22.30;6.20;;;18.00;99.90;;;;;;4991835;28;20042;-70
2023/07/16 01:11:13;;;;;;;17.38;5.78;;;17.90;99.90;;;;;;4992109;28;20109;-70
2023/07/16 01:13:40;;;;;;;21.20;6.30;;;17.90;99.90;;;;;;4992670;28;20034;-70
2023/07/16 01:16:06;;;;;;;20.83;6.00;;;17.90;99.90;;;;;;4992394;28;20125;-71
2023/07/16 01:18:31;;;;;;;22.02;6.75;;;17.90;99.90;;;;;;4992246;28;20105;-69
2023/07/16 01:20:58;;;;;;;25.15;6.55;;;18.00;99.90;;;;;;4992179;28;20058;-70
2023/07/16 01:23:50;;;;;;;24.50;7.30;;;18.00;99.90;;;;;;4992503;28;20023;-70
2023/07/16 01:26:23;;;;;;;22.20;6.68;;;18.00;99.90;;;;;;4991984;28;20057;-70
2023/07/16 01:29:11;;;;;;;17.85;6.63;;;18.00;99.90;;;;;;4992307;28;20434;-69
2023/07/16 01:31:37;;;;;;;20.15;6.50;;;18.00;99.90;;;;;;4992440;28;20031;-71
2023/07/16 01:34:05;;;;;;;23.75;7.53;;;18.00;99.90;;;;;;4992141;28;20258;-71
2023/07/16 01:36:33;;;;;;;18.27;6.75;;;18.00;99.90;;;;;;4991989;28;20100;-70
2023/07/16 01:38:59;;;;;;;21.52;7.32;;;18.00;99.90;;;;;;4992380;28;20117;-70
2023/07/16 01:41:25;;;;;;;27.08;6.82;;;18.00;99.90;;;;;;4990411;28;20125;-70
2023/07/16 01:43:50;;;;;;;22.33;8.13;;;17.90;99.90;;;;;;4991454;28;20470;-69
2023/07/16 01:46:16;;;;;;;22.38;6.78;;;18.00;99.90;;;;;;4991868;28;20027;-69
2023/07/16 01:48:42;;;;;;;16.48;5.45;;;18.00;99.90;;;;;;4991798;28;20391;-70
2023/07/16 01:51:07;;;;;;;19.20;7.32;;;17.90;99.90;;;;;;4990662;28;20037;-69
2023/07/16 01:53:33;;;;;;;21.73;7.18;;;17.80;99.90;;;;;;4991651;28;20106;-69
2023/07/16 01:56:00;;;;;;;26.88;9.45;;;17.80;99.90;;;;;;4991769;28;20394;-70
2023/07/16 01:58:26;;;;;;;29.52;10.13;;;17.80;99.90;;;;;;4991402;28;20038;-70
2023/07/16 02:00:51;;;;;;;23.92;8.55;;;17.80;99.90;;;;;;4991704;28;20113;-69
2023/07/16 02:03:17;;;;;;;23.90;7.07;;;17.90;99.90;;;;;;4991629;28;20034;-71
2023/07/16 02:05:42;;;;;;;18.20;6.60;;;17.90;99.90;;;;;;4993889;28;20084;-70
2023/07/16 02:08:08;;;;;;;23.58;8.80;;;18.00;99.90;;;;;;4991332;28;20046;-71
2023/07/16 02:10:33;;;;;;;29.50;8.82;;;18.00;99.90;;;;;;4991329;28;20034;-70
2023/07/16 02:12:59;;;;;;;25.50;8.43;;;18.00;99.90;;;;;;4991198;28;20031;-69
2023/07/16 02:15:25;;;;;;;23.05;8.38;;;18.10;99.90;;;;;;4990866;28;20038;-72
2023/07/16 02:17:50;;;;;;;19.13;7.20;;;18.10;99.90;;;;;;4991539;28;20057;-70
2023/07/16 02:20:16;;;;;;;27.73;8.23;;;18.10;99.90;;;;;;4991224;28;20040;-70
2023/07/16 02:22:41;;;;;;;21.42;7.80;;;18.10;99.90;;;;;;4991443;28;20038;-71
2023/07/16 02:25:07;;;;;;;20.58;8.05;;;18.10;99.90;;;;;;4991141;28;20042;-69
2023/07/16 02:27:33;;;;;;;23.90;8.50;;;18.10;99.90;;;;;;4990667;28;20030;-71
2023/07/16 02:29:59;;;;;;;20.30;6.93;;;18.10;99.90;;;;;;4991045;28;20030;-70
2023/07/16 02:32:24;;;;;;;27.63;8.00;;;18.10;99.90;;;;;;4990710;28;20037;-68
2023/07/16 02:34:50;;;;;;;24.33;7.38;;;18.10;99.90;;;;;;4990767;28;20118;-70
2023/07/16 02:37:15;;;;;;;19.23;5.78;;;18.10;99.90;;;;;;4990843;28;20430;-70
2023/07/16 02:39:48;;;;;;;22.33;7.20;;;18.00;99.90;;;;;;4990542;28;20446;-70
2023/07/16 02:42:14;;;;;;;16.65;6.00;;;18.00;99.90;;;;;;4991124;28;20097;-69
2023/07/16 02:44:44;;;;;;;21.25;5.88;;;18.10;99.90;;;;;;4990843;28;20033;-70
2023/07/16 02:47:10;;;;;;;19.92;7.30;;;18.00;99.90;;;;;;4990775;28;20022;-70
2023/07/16 02:49:36;;;;;;;20.95;6.93;;;18.00;99.90;;;;;;4990768;28;20041;-69
2023/07/16 02:52:01;;;;;;;18.45;7.40;;;18.00;99.90;;;;;;4990993;28;20034;-68
2023/07/16 02:54:27;;;;;;;15.77;5.18;;;18.00;99.90;;;;;;4990296;28;20454;-70
2023/07/16 02:56:53;;;;;;;20.08;7.90;;;18.00;99.90;;;;;;4991577;28;20416;-72
2023/07/16 02:59:18;;;;;;;23.23;6.60;;;17.90;99.90;;;;;;4993654;28;20026;-70
2023/07/16 03:01:44;;;;;;;20.15;7.20;;;17.90;99.90;;;;;;4992059;28;20031;-70
2023/07/16 03:04:09;;;;;;;19.70;8.23;;;17.80;99.90;;;;;;4993436;28;20034;-69
2023/07/16 03:06:35;;;;;;;25.50;8.68;;;17.60;99.90;;;;;;4993349;28;20467;-67
2023/07/16 03:09:01;;;;;;;21.20;8.07;;;17.60;99.90;;;;;;4992901;28;20493;-68
2023/07/16 03:11:26;;;;;;;24.80;9.07;;;17.50;99.90;;;;;;4992370;28;20027;-68
2023/07/16 03:13:52;;;;;;;24.02;8.90;;;17.40;99.90;;;;;;4993418;28;20105;-67
2023/07/16 03:16:17;;;;;;;21.50;8.00;;;17.30;99.90;;;;;;4993369;28;20042;-67
2023/07/16 03:18:45;;;;;;;20.73;9.32;;;17.20;99.90;;;;;;4993307;28;20041;-68
2023/07/16 03:21:10;;;;;;;24.52;7.97;;;17.10;99.90;;;;;;4993501;28;20074;-70
2023/07/16 03:23:36;;;;;;;26.15;9.68;;;17.00;99.90;;;;;;4993168;28;20066;-69
2023/07/16 03:26:01;;;;;;;25.05;9.50;;;17.10;99.90;;;;;;4983646;28;20054;-69
2023/07/16 03:28:27;;;;;;;23.73;8.70;;;17.00;99.90;;;;;;4983693;28;20023;-69
2023/07/16 03:30:53;;;;;;;27.08;10.02;;;17.00;99.90;;;;;;4980964;28;20480;-69
2023/07/16 03:33:19;;;;;;;20.60;8.25;;;17.00;99.90;;;;;;4983466;28;20022;-71
2023/07/16 03:35:46;;;;;;;29.90;13.15;;;16.90;99.90;;;;;;4983451;28;20251;-70
2023/07/16 03:38:13;;;;;;;23.58;7.78;;;17.00;99.90;;;;;;4980201;28;20387;-69
2023/07/16 03:40:38;;;;;;;27.58;9.70;;;17.00;99.90;;;;;;4983689;28;20074;-67
2023/07/16 03:43:04;;;;;;;28.20;10.00;;;17.10;99.90;;;;;;4983134;28;20026;-67
2023/07/16 03:45:30;;;;;;;23.77;8.98;;;17.00;99.90;;;;;;4983842;28;20038;-67
2023/07/16 03:47:55;;;;;;;27.05;8.40;;;16.90;99.90;;;;;;4981917;28;20050;-67
2023/07/16 03:50:21;;;;;;;25.05;9.82;;;16.80;99.90;;;;;;4983896;28;20037;-66
2023/07/16 03:52:47;;;;;;;24.38;8.57;;;16.80;99.90;;;;;;4980718;28;20030;-66
2023/07/16 03:55:13;;;;;;;23.23;8.48;;;16.70;99.90;;;;;;4981486;28;20458;-66
2023/07/16 03:57:38;;;;;;;24.33;7.43;;;16.60;99.90;;;;;;4983792;28;20057;-66
2023/07/16 04:00:08;;;;;;;19.70;6.85;;;16.50;99.90;;;;;;4982900;28;20419;-65
2023/07/16 04:02:34;;;;;;;19.48;7.97;;;16.50;99.90;;;;;;4982023;28;20023;-66
2023/07/16 04:05:00;;;;;;;21.13;7.55;;;16.50;99.90;;;;;;4983402;28;20057;-66
2023/07/16 04:07:25;;;;;;;23.48;7.72;;;16.50;99.90;;;;;;4983206;28;20444;-67
2023/07/16 04:09:51;;;;;;;20.10;6.95;;;16.50;99.90;;;;;;4984803;28;20046;-67
2023/07/16 04:12:17;;;;;;;17.50;7.45;;;16.50;99.90;;;;;;4984455;28;20027;-67
2023/07/16 04:14:43;;;;;;;22.35;6.93;;;16.60;99.90;;;;;;4987812;28;20386;-67
2023/07/16 04:17:08;;;;;;;17.67;6.10;;;16.60;99.90;;;;;;4986538;28;20393;-67
2023/07/16 04:19:34;;;;;;;20.25;7.43;;;16.60;99.90;;;;;;4985340;28;20039;-67
2023/07/16 04:21:59;;;;;;;22.42;7.85;;;16.70;99.90;;;;;;4986604;28;20110;-67
2023/07/16 04:24:26;;;;;;;14.77;5.35;;;16.70;99.90;;;;;;4986236;28;20030;-67
2023/07/16 04:26:53;;;;;;;18.20;5.70;;;16.70;99.90;;;;;;4985852;28;20104;-67
2023/07/16 04:29:18;;;;;;;23.67;7.55;;;16.80;99.90;;;;;;4987621;28;20037;-68
2023/07/16 04:31:44;;;;;;;18.60;6.88;;;16.80;99.90;;;;;;4985822;28;20030;-68
2023/07/16 04:34:10;;;;;;;22.42;6.93;;;16.80;99.90;;;;;;4986216;28;20022;-69
2023/07/16 04:36:35;;;;;;;22.10;7.35;;;16.90;99.90;;;;;;4987076;28;20364;-68
2023/07/16 04:39:01;;;;;;;20.23;6.30;;;16.90;99.90;;;;;;4984352;28;20031;-68
2023/07/16 04:41:27;;;;;;;19.48;6.90;;;17.00;99.90;;;;;;4986049;28;20022;-68
2023/07/16 04:43:52;;;;;;;20.13;8.07;;;16.90;99.90;;;;;;4987164;28;20112;-68
2023/07/16 04:46:18;;;;;;;20.23;7.68;;;16.90;99.90;;;;;;4985207;28;20118;-68
2023/07/16 04:48:43;;;;;;;23.15;6.82;;;17.00;99.90;;;;;;4986691;28;20076;-68
2023/07/16 04:51:09;;;;;;;22.35;7.90;;;17.00;99.90;;;;;;4984192;28;20027;-66
2023/07/16 04:53:34;;;;;;;21.42;7.70;;;16.90;99.90;;;;;;4977457;28;20031;-67
2023/07/16 04:56:01;;;;;;;25.00;8.18;;;16.90;99.90;;;;;;4996412;28;20057;-67
2023/07/16 04:58:26;;;;;;;21.15;8.38;;;16.80;99.90;;;;;;4995936;28;20030;-66
2023/07/16 05:00:52;;;;;;;22.90;8.68;;;16.70;99.90;;;;;;4996001;28;20398;-67
2023/07/16 05:03:17;;;;;;;22.33;9.07;;;16.60;99.90;;;;;;4995999;28;20485;-66
2023/07/16 05:05:43;;;;;;;21.17;8.60;;;16.50;99.90;;;;;;4996135;28;20030;-66
2023/07/16 05:08:08;;;;;;;35.15;8.93;;;16.50;99.90;;;;;;4996179;28;20022;-67
2023/07/16 05:10:34;;;;;;;24.05;8.02;;;16.40;99.90;;;;;;4995999;28;20099;-67
2023/07/16 05:13:00;;;;;;;21.42;8.63;;;16.30;99.90;;;;;;4995461;28;20489;-67
2023/07/16 05:15:25;;;;;;;22.58;8.82;;;16.20;99.90;;;;;;4996005;28;20045;-67
2023/07/16 05:17:51;;;;;;;21.65;8.52;;;16.20;99.90;;;;;;4995598;28;20109;-67
2023/07/16 05:20:16;;;;;;;22.80;8.95;;;16.40;99.90;;;;;;4995554;28;20374;-66
2023/07/16 05:22:42;;;;;;;23.02;9.50;;;16.60;99.90;;;;;;4995655;28;20175;-67
2023/07/16 05:25:08;;;;;;;21.73;8.20;;;16.80;99.90;;;;;;4995187;28;20117;-66
2023/07/16 05:27:34;;;;;;;20.38;7.30;;;16.80;99.90;;;;;;4995664;28;20037;-66
2023/07/16 05:29:59;;;;;;;17.40;7.07;;;16.90;99.90;;;;;;4995665;28;20026;-67
2023/07/16 05:32:25;;;;;;;21.45;7.85;;;16.80;99.90;;;;;;4994133;28;20041;-66
2023/07/16 05:34:50;;;;;;;20.33;8.20;;;16.80;99.90;;;;;;4995498;28;20053;-66
2023/07/16 05:37:16;;;;;;;20.10;7.80;;;16.80;99.90;;;;;;4995100;28;20038;-66
2023/07/16 05:39:41;;;;;;;19.48;8.38;;;16.80;99.90;;;;;;4995395;28;20048;-66
2023/07/16 05:42:07;;;;;;;22.00;8.45;;;16.80;99.90;;;;;;4995354;28;20110;-66
2023/07/16 05:44:33;;;;;;;21.13;7.28;;;16.80;99.90;;;;;;4994175;28;20390;-66
2023/07/16 05:46:59;;;;;;;23.13;7.47;;;16.90;99.90;;;;;;4995636;28;20034;-66
2023/07/16 05:49:26;;;;;;;18.38;6.80;;;17.00;99.90;;;;;;4995190;28;20030;-66
2023/07/16 05:51:54;;;;;;;18.35;7.20;;;17.00;99.90;;;;;;4995328;28;20362;-67
2023/07/16 05:54:19;;;;;;;18.13;7.50;;;17.00;99.90;;;;;;4995412;28;20114;-67
2023/07/16 05:56:45;;;;;;;23.75;8.40;;;16.90;99.90;;;;;;4995307;28;20575;-67
2023/07/16 05:59:11;;;;;;;21.05;8.25;;;16.90;99.90;;;;;;4995404;28;20092;-67
2023/07/16 06:01:36;;;;;;;20.15;7.57;;;17.20;99.90;;;;;;4995213;28;20451;-66
2023/07/16 06:04:02;;;;;;;16.83;6.95;;;17.50;99.90;;;;;;4994829;28;20030;-66
2023/07/16 06:06:28;;;;;;;21.67;7.90;;;17.80;99.90;;;;;;4994602;28;20029;-66
2023/07/16 06:08:54;;;;;;;24.42;9.77;;;18.20;99.90;;;;;;4994807;28;20023;-67
2023/07/16 06:11:20;;;;;;;17.73;6.75;;;18.10;99.90;;;;;;4994834;28;20105;-67
2023/07/16 06:13:46;;;;;;;15.57;5.50;;;17.90;99.90;;;;;;4994704;28;20034;-67
2023/07/16 06:16:11;;;;;;;20.08;7.65;;;17.70;99.90;;;;;;4994901;28;20130;-67
2023/07/16 06:18:37;;;;;;;20.17;8.40;;;17.70;99.90;;;;;;4994734;28;20030;-66
2023/07/16 06:21:02;;;;;;;18.98;8.00;;;17.90;99.90;;;;;;4994702;28;20081;-68
2023/07/16 06:23:28;;;;;;;20.05;7.72;;;17.90;99.90;;;;;;4994752;28;20032;-64
2023/07/16 06:25:54;;;;;;;15.77;6.75;;;18.10;99.90;;;;;;4994329;28;20121;-66
2023/07/16 06:28:20;;;;;;;19.50;7.47;;;18.60;99.90;;;;;;4994483;28;20060;-66
2023/07/16 06:30:45;;;;;;;16.65;5.75;;;18.60;99.90;;;;;;4994637;28;20058;-67
2023/07/16 06:33:11;;;;;;;18.20;6.38;;;18.50;99.90;;;;;;4994096;28;20037;-66
2023/07/16 06:35:37;;;;;;;16.70;7.45;;;18.30;99.90;;;;;;4994127;28;20034;-66
2023/07/16 06:38:02;;;;;;;21.27;9.13;;;18.30;99.90;;;;;;4993949;28;20058;-66
2023/07/16 06:40:29;;;;;;;19.70;7.10;;;18.30;99.90;;;;;;4994772;28;20030;-68
2023/07/16 06:42:54;;;;;;;24.10;7.70;;;18.20;99.90;;;;;;4994679;28;20030;-66
2023/07/16 06:45:20;;;;;;;22.40;8.02;;;18.20;99.90;;;;;;4994183;28;20391;-66
2023/07/16 06:47:46;;;;;;;17.10;7.28;;;18.40;99.90;;;;;;4994326;28;20023;-66
2023/07/16 06:50:11;;;;;;;19.15;6.57;;;18.50;99.90;;;;;;4992747;28;20037;-66
2023/07/16 06:52:37;;;;;;;21.83;7.78;;;18.50;99.90;;;;;;4993713;28;20034;-67
2023/07/16 06:55:02;;;;;;;21.55;8.45;;;18.60;99.90;;;;;;4993917;28;20041;-66
2023/07/16 06:57:28;;;;;;;15.88;5.90;;;18.70;99.90;;;;;;4994006;28;20026;-66
2023/07/16 06:59:54;;;;;;;19.45;7.70;;;18.80;99.90;;;;;;4993964;28;20077;-65
2023/07/16 07:02:20;;;;;;;14.40;5.25;;;18.90;99.90;;;;;;4992333;28;20026;-67
2023/07/16 07:04:45;;;;;;;19.58;6.40;;;19.00;99.90;;;;;;4992574;28;20382;-65
2023/07/16 07:07:11;;;;;;;16.23;6.18;;;19.30;99.90;;;;;;4994094;28;20510;-67
2023/07/16 07:09:36;;;;;;;21.58;6.65;;;19.90;99.90;;;;;;4994033;28;20026;-68
2023/07/16 07:12:02;;;;;;;18.20;6.40;;;20.10;99.90;;;;;;4993998;28;20034;-67
2023/07/16 07:14:29;;;;;;;15.57;5.13;;;20.50;99.90;;;;;;4985271;28;20105;-66
2023/07/16 07:16:55;;;;;;;19.70;5.90;;;21.20;99.90;;;;;;4984016;28;20064;-66
2023/07/16 07:19:20;;;;;;;19.00;6.50;;;21.70;99.90;;;;;;4983941;28;20062;-66
2023/07/16 07:21:46;;;;;;;15.88;6.45;;;21.80;99.90;;;;;;4982965;28;20034;-66
2023/07/16 07:24:12;;;;;;;21.75;7.13;;;21.30;99.90;;;;;;4984454;28;20042;-68
2023/07/16 07:26:38;;;;;;;16.52;6.35;;;20.70;99.90;;;;;;4983857;28;20039;-67
2023/07/16 07:29:03;;;;;;;20.30;6.45;;;20.30;99.90;;;;;;4982816;28;20478;-66
2023/07/16 07:31:29;;;;;;;13.43;5.63;;;20.20;99.90;;;;;;4983970;28;20447;-66
2023/07/16 07:33:56;;;;;;;19.67;6.10;;;20.30;99.90;;;;;;4983253;28;20510;-67
2023/07/16 07:36:22;;;;;;;20.08;6.45;;;20.60;99.90;;;;;;4982815;28;20088;-67
2023/07/16 07:38:48;;;;;;;17.73;5.95;;;21.20;99.90;;;;;;4983956;28;20026;-67
2023/07/16 07:41:15;;;;;;;17.05;6.13;;;21.50;99.90;;;;;;4984987;28;20092;-66
2023/07/16 07:43:41;;;;;;;17.80;6.32;;;21.50;99.90;;;;;;4983618;28;20509;-66
2023/07/16 07:46:07;;;;;;;16.15;6.05;;;21.70;99.90;;;;;;4982212;28;20050;-67
2023/07/16 07:48:32;;;;;;;15.63;6.03;;;21.80;99.90;;;;;;4983968;28;20439;-66
2023/07/16 07:50:58;;;;;;;19.38;6.63;;;21.40;99.90;;;;;;4987471;28;20371;-66
2023/07/16 07:53:23;;;;;;;18.13;6.20;;;21.20;99.90;;;;;;4986508;28;20387;-66
2023/07/16 07:55:49;;;;;;;20.02;6.35;;;21.20;99.90;;;;;;4987889;28;20058;-67
2023/07/16 07:58:15;;;;;;;16.83;6.32;;;21.30;99.90;;;;;;4986845;28;20445;-66
2023/07/16 08:00:40;;;;;;;17.55;6.07;;;21.50;99.90;;;;;;4987170;28;20579;-66
2023/07/16 08:03:06;;;;;;;16.70;5.82;;;21.20;99.90;;;;;;4986352;28;20019;-66
2023/07/16 08:05:33;;;;;;;20.95;6.70;;;21.00;99.90;;;;;;4988322;28;20106;-66
2023/07/16 08:07:59;;;;;;;24.88;6.43;;;20.70;99.90;;;;;;4985710;28;20066;-66
2023/07/16 10:37:41;;;;;;;18.85;4.40;;;25.40;94.40;;;;;;4382444;29;20059;-68
2023/07/16 10:40:12;;;;;;;13.60;3.65;;;24.50;95.70;;;;;;4924269;29;20399;-68
2023/07/16 10:42:39;;;;;;;19.40;3.97;;;24.00;96.50;;;;;;4934091;29;20068;-68
2023/07/16 10:45:06;;;;;;;13.82;3.78;;;23.40;97.40;;;;;;4935660;29;20051;-67
2023/07/16 10:47:35;;;;;;;17.70;4.13;;;22.90;97.80;;;;;;4935899;29;20028;-68
2023/07/16 10:50:04;;;;;;;15.15;3.70;;;22.80;98.20;;;;;;4935597;29;20083;-67
2023/07/16 10:52:29;;;;;;;15.48;3.72;;;23.20;98.10;;;;;;4935759;29;20046;-68
2023/07/16 10:54:55;;;;;;;16.75;3.30;;;23.30;97.10;;;;;;4935183;29;20467;-67
2023/07/16 10:57:22;;;;;;;16.45;3.55;;;23.10;97.50;;;;;;4935605;29;20020;-68
2023/07/16 10:59:49;;;;;;;14.23;3.67;;;23.00;97.60;;;;;;4935509;29;20075;-68
2023/07/16 11:02:16;;;;;;;15.35;3.72;;;22.70;98.10;;;;;;4935547;29;20019;-68
2023/07/16 11:04:44;;;;;;;17.90;3.45;;;23.00;97.60;;;;;;4932308;29;20083;-67
2023/07/16 11:07:14;;;;;;;14.05;3.10;;;23.70;96.90;;;;;;4934120;29;20038;-68
2023/07/16 11:09:44;;;;;;;14.93;2.92;;;25.10;94.80;;;;;;4934554;29;20044;-68
2023/07/16 11:12:11;;;;;;;13.43;2.88;;;25.70;94.20;;;;;;4941520;29;20123;-68
2023/07/16 11:14:38;;;;;;;16.42;3.28;;;25.40;94.10;;;;;;4954420;28;20042;-68
2023/07/16 11:17:08;;;;;;;11.27;2.92;;;25.30;94.60;;;;;;4952955;29;20049;-68
2023/07/16 11:19:37;;;;;;;10.32;2.45;;;26.30;93.30;;;;;;4954405;28;20030;-67
2023/07/16 11:22:04;;;;;;;14.80;3.42;;;26.70;91.60;;;;;;4953946;28;20538;-67
2023/07/16 11:24:41;;;;;;;18.00;3.10;;;26.40;92.20;;;;;;4954201;28;20432;-68
2023/07/16 11:27:15;;;;;;;11.98;3.38;;;26.30;92.50;;;;;;4954294;28;20039;-67
2023/07/16 11:29:51;;;;;;;17.38;3.30;;;25.80;93.10;;;;;;4954487;28;20102;-68
2023/07/16 11:32:36;;;;;;;13.43;2.53;;;25.20;93.20;;;;;;4953984;28;20020;-68
2023/07/16 11:35:04;;;;;;;13.55;2.67;;;24.90;93.30;;;;;;4954274;28;20501;-68
2023/07/16 11:37:31;;;;;;;12.10;2.78;;;25.50;93.00;;;;;;4954560;28;20495;-67
2023/07/16 11:40:08;;;;;;;14.48;3.03;;;26.30;91.80;;;;;;4954813;28;20023;-68
2023/07/16 11:42:38;;;;;;;15.15;3.08;;;26.20;91.60;;;;;;4943594;28;20458;-67
2023/07/16 11:45:14;;;;;;;16.55;2.88;;;25.90;91.30;;;;;;4924507;29;20032;-68
2023/07/16 11:47:39;;;;;;;12.50;2.67;;;25.70;91.90;;;;;;4915712;29;20024;-68
2023/07/16 11:50:06;;;;;;;13.88;3.55;;;26.20;91.40;;;;;;4916062;29;20039;-68
2023/07/16 11:52:31;;;;;;;16.33;3.58;;;26.80;90.90;;;;;;4915883;29;20391;-69
2023/07/16 11:55:03;;;;;;;17.80;4.05;;;26.70;91.10;;;;;;4916015;29;20123;-69
2023/07/16 11:57:29;;;;;;;16.55;4.03;;;26.50;91.20;;;;;;4915815;29;20120;-69
2023/07/16 11:59:55;;;;;;;14.38;3.05;;;26.90;91.00;;;;;;4915885;29;20387;-68
2023/07/16 12:02:21;;;;;;;12.02;3.10;;;27.50;90.10;;;;;;4916242;29;20036;-69
2023/07/16 12:04:47;;;;;;;11.00;2.40;;;27.40;87.90;;;;;;4915952;29;20480;-69
2023/07/16 12:07:12;;;;;;;13.05;3.20;;;27.50;88.20;;;;;;4923437;29;20058;-68
2023/07/16 12:09:38;;;;;;;14.00;3.30;;;27.50;87.80;;;;;;4934433;29;20036;-68
2023/07/16 12:12:04;;;;;;;10.52;2.95;;;27.60;87.10;;;;;;4934661;29;20173;-67
2023/07/16 12:14:30;;;;;;;14.68;2.80;;;28.00;86.70;;;;;;4934760;29;20035;-68
2023/07/16 12:16:56;;;;;;;8.43;2.28;;;28.00;85.70;;;;;;4947174;29;20039;-67
2023/07/16 12:19:22;;;;;;;14.07;2.75;;;28.20;85.30;;;;;;4953806;29;20414;-67
2023/07/16 12:21:47;;;;;;;13.13;3.22;;;28.20;85.40;;;;;;4954002;29;20309;-68
2023/07/16 12:24:13;;;;;;;12.73;2.58;;;28.30;86.00;;;;;;4953795;28;20031;-68
2023/07/16 12:26:38;;;;;;;14.30;3.10;;;28.90;85.80;;;;;;4953619;29;20494;-68
2023/07/16 12:29:04;;;;;;;13.18;2.60;;;28.90;84.40;;;;;;4953936;29;20351;-68
2023/07/16 12:31:31;;;;;;;7.95;2.15;;;28.90;82.70;;;;;;4953724;29;20024;-68
2023/07/16 12:33:57;;;;;;;12.88;2.35;;;28.80;82.40;;;;;;4953699;28;20042;-68
2023/07/16 12:36:23;;;;;;;12.90;3.05;;;28.70;83.50;;;;;;4956292;28;20039;-69
2023/07/16 12:38:48;;;;;;;14.10;2.70;;;28.60;83.80;;;;;;4956748;29;20055;-68
2023/07/16 12:41:15;;;;;;;13.20;3.17;;;28.20;83.50;;;;;;4956923;29;20038;-68
2023/07/16 12:43:41;;;;;;;9.75;2.38;;;28.10;83.50;;;;;;4957140;28;20046;-69
2023/07/16 12:46:06;;;;;;;10.65;2.38;;;27.70;83.40;;;;;;4956018;29;20027;-68
2023/07/16 12:48:32;;;;;;;14.80;2.47;;;26.90;84.40;;;;;;4956867;28;20042;-68
2023/07/16 12:50:58;;;;;;;13.93;3.13;;;26.50;86.40;;;;;;4956896;29;20023;-69
2023/07/16 12:53:25;;;;;;;17.95;2.92;;;26.40;86.80;;;;;;4956955;28;20086;-68
2023/07/16 12:55:51;;;;;;;14.50;2.78;;;26.20;87.70;;;;;;4956727;28;20426;-68
2023/07/16 12:58:16;;;;;;;12.80;2.53;;;26.00;88.10;;;;;;4956927;28;20114;-68
2023/07/16 13:00:42;;;;;;;12.52;2.97;;;25.90;87.40;;;;;;4956951;29;20181;-70
2023/07/16 13:03:11;;;;;;;12.57;2.85;;;25.70;88.50;;;;;;4956848;28;20027;-68
2023/07/16 13:05:40;;;;;;;18.52;3.13;;;25.50;89.40;;;;;;4956935;28;20489;-69
2023/07/16 13:08:06;;;;;;;13.82;2.50;;;25.20;90.50;;;;;;4956705;28;20489;-68
2023/07/16 13:10:31;;;;;;;11.85;2.65;;;24.90;90.70;;;;;;4956379;28;20027;-69
2023/07/16 13:12:57;;;;;;;14.82;2.60;;;24.50;91.70;;;;;;4956734;28;20113;-68
2023/07/16 13:15:22;;;;;;;14.55;2.67;;;24.40;92.00;;;;;;4956604;28;20054;-69
2023/07/16 13:17:48;;;;;;;11.32;2.75;;;24.40;91.90;;;;;;4956808;29;20471;-68
2023/07/16 13:20:14;;;;;;;13.48;2.72;;;24.50;91.90;;;;;;4956351;29;20031;-68
2023/07/16 13:22:40;;;;;;;15.00;2.95;;;24.40;92.10;;;;;;4956184;28;20035;-68
2023/07/16 13:25:06;;;;;;;17.30;3.33;;;24.30;92.80;;;;;;4956607;28;20090;-69
2023/07/16 13:27:32;;;;;;;15.38;2.83;;;24.30;92.60;;;;;;4955314;29;20110;-68
2023/07/16 13:29:58;;;;;;;15.88;3.10;;;24.10;92.60;;;;;;4956245;29;20027;-69
2023/07/16 13:32:24;;;;;;;14.85;3.00;;;24.20;92.90;;;;;;4956214;29;20110;-69
2023/07/16 13:34:49;;;;;;;15.35;2.88;;;24.20;93.60;;;;;;4956261;29;20364;-69
2023/07/16 13:37:15;;;;;;;12.43;2.90;;;24.20;93.50;;;;;;4955821;29;20023;-69
2023/07/16 13:39:41;;;;;;;9.27;2.25;;;24.20;92.90;;;;;;4956222;29;20487;-69
2023/07/16 13:42:06;;;;;;;14.70;2.42;;;24.30;92.30;;;;;;4956055;29;20063;-69
2023/07/16 13:44:33;;;;;;;12.25;2.30;;;24.30;92.50;;;;;;4956141;29;20048;-70
2023/07/16 13:46:58;;;;;;;15.02;3.70;;;24.10;92.80;;;;;;4955888;28;20035;-69
2023/07/16 13:49:24;;;;;;;8.75;2.30;;;24.10;92.70;;;;;;4956071;29;20081;-69
2023/07/16 13:51:49;;;;;;;10.00;1.75;;;24.10;91.90;;;;;;4955575;28;20035;-69
2023/07/16 13:54:15;;;;;;;11.35;2.58;;;24.00;92.10;;;;;;4955589;29;20038;-68
2023/07/16 13:56:40;;;;;;;12.20;2.13;;;23.90;92.60;;;;;;4955609;29;20039;-67
2023/07/16 13:59:07;;;;;;;12.65;2.28;;;23.90;92.70;;;;;;4955660;29;20032;-69
2023/07/16 14:01:32;;;;;;;14.70;2.65;;;23.90;92.80;;;;;;4955917;28;20471;-69
2023/07/16 14:03:58;;;;;;;9.88;2.55;;;23.80;93.10;;;;;;4955595;29;20093;-69
2023/07/16 14:06:23;;;;;;;15.00;2.70;;;23.80;93.10;;;;;;4955832;29;20035;-69
2023/07/16 14:08:49;;;;;;;13.38;2.78;;;23.90;93.00;;;;;;4955636;29;20031;-68
2023/07/16 14:11:18;;;;;;;12.35;3.17;;;24.00;93.10;;;;;;4955614;29;20106;-69
2023/07/16 14:13:43;;;;;;;16.73;3.45;;;24.00;93.10;;;;;;4955583;28;20090;-69
2023/07/16 14:16:09;;;;;;;14.15;3.00;;;23.90;93.50;;;;;;4955435;29;20478;-69
2023/07/16 14:18:34;;;;;;;14.85;2.67;;;23.90;93.70;;;;;;4955127;29;20376;-69
2023/07/16 14:21:02;;;;;;;14.88;3.20;;;23.80;94.00;;;;;;4955425;29;20397;-67
2023/07/16 14:23:28;;;;;;;15.02;2.95;;;23.80;93.90;;;;;;4955351;28;20035;-69
2023/07/16 14:25:53;;;;;;;14.50;2.60;;;23.80;94.10;;;;;;4955323;29;20088;-67
2023/07/16 14:28:19;;;;;;;19.92;2.75;;;23.70;94.60;;;;;;4955176;28;20039;-69
2023/07/16 14:30:44;;;;;;;14.20;2.63;;;23.80;94.30;;;;;;4955296;29;20035;-68
2023/07/16 14:33:10;;;;;;;13.75;2.78;;;23.80;94.50;;;;;;4955186;29;20093;-69
2023/07/16 14:35:35;;;;;;;12.27;2.20;;;23.80;94.60;;;;;;4955171;29;20048;-68
2023/07/16 14:38:01;;;;;;;14.52;3.10;;;23.90;94.50;;;;;;4954930;29;20088;-69
2023/07/16 14:40:26;;;;;;;13.30;2.80;;;23.90;94.80;;;;;;4955028;29;20030;-69
2023/07/16 14:42:52;;;;;;;12.95;2.80;;;23.80;94.50;;;;;;4954995;29;20158;-69
2023/07/16 14:45:18;;;;;;;13.32;2.40;;;23.70;94.70;;;;;;4955012;28;20065;-69
2023/07/16 14:47:43;;;;;;;14.30;2.58;;;23.70;94.80;;;;;;4955174;28;20066;-68
2023/07/16 14:50:10;;;;;;;15.25;2.38;;;23.80;95.00;;;;;;4954675;29;20046;-68
2023/07/16 14:52:36;;;;;;;12.15;2.60;;;23.80;94.10;;;;;;4955308;28;20042;-69
2023/07/16 14:55:04;;;;;;;10.57;2.17;;;23.80;94.20;;;;;;4954878;28;20019;-69
2023/07/16 14:57:29;;;;;;;12.60;2.60;;;23.80;92.60;;;;;;4941502;28;20087;-68